Time;durP1;ratioP1;P1;durP2;ratioP2;P2;SDS_P1;SDS_P2;PMS_P1;PMS_P2;Temp;Humidity;BMP_temperature;BMP_pressure;BME280_temperature;BME280_humidity;BME280_pressure;Samples;Min_cycle;Max_cycle;Signal;HPM_P1;HPM_P2
2021/03/22 00:01:34;;;;;;;16.08;2.78;;;3.80;99.90;;;;;;4978254;28;20060;-86
2021/03/22 00:04:01;;;;;;;21.08;3.50;;;3.60;99.90;;;;;;4978154;28;20061;-87
2021/03/22 00:06:28;;;;;;;22.08;3.78;;;3.60;99.90;;;;;;4995446;28;20093;-87
2021/03/22 00:08:56;;;;;;;19.35;3.95;;;3.50;99.90;;;;;;4977980;28;20858;-86
2021/03/22 00:11:23;;;;;;;22.60;3.33;;;3.60;99.90;;;;;;4978061;28;20046;-86
2021/03/22 00:13:49;;;;;;;18.10;3.40;;;3.60;99.90;;;;;;4978160;28;20082;-86
2021/03/22 00:16:16;;;;;;;15.98;3.30;;;3.60;99.90;;;;;;4978110;28;20487;-86
2021/03/22 00:18:43;;;;;;;23.02;3.65;;;3.70;99.90;;;;;;4977111;28;20050;-86
2021/03/22 00:21:11;;;;;;;17.13;3.10;;;3.80;99.90;;;;;;4977802;28;20121;-87
2021/03/22 00:23:38;;;;;;;25.05;3.92;;;3.80;99.90;;;;;;4994687;28;20050;-87
2021/03/22 00:26:05;;;;;;;19.63;3.45;;;3.70;99.90;;;;;;4994886;28;20093;-86
2021/03/22 00:28:38;;;;;;;18.05;3.10;;;3.70;99.90;;;;;;4978015;28;20074;-86
2021/03/22 00:31:14;;;;;;;16.58;3.08;;;3.70;99.90;;;;;;4977932;28;20046;-86
2021/03/22 00:33:41;;;;;;;26.67;4.68;;;3.80;99.90;;;;;;4995046;28;20046;-87
2021/03/22 00:36:08;;;;;;;17.05;3.63;;;3.70;99.90;;;;;;4978091;28;20054;-87
2021/03/22 00:38:34;;;;;;;17.52;3.50;;;3.60;99.90;;;;;;4978081;28;20485;-86
2021/03/22 00:41:01;;;;;;;14.38;3.20;;;3.60;99.90;;;;;;4993664;28;20054;-86
2021/03/22 00:43:27;;;;;;;16.00;3.08;;;3.60;99.90;;;;;;4994786;28;20125;-86
2021/03/22 00:45:56;;;;;;;15.45;3.45;;;3.60;99.90;;;;;;4977481;28;20085;-86
2021/03/22 00:48:24;;;;;;;17.90;3.30;;;3.50;99.90;;;;;;4977542;28;20047;-87
2021/03/22 00:50:52;;;;;;;25.45;3.35;;;3.50;99.90;;;;;;4994671;28;20406;-86
2021/03/22 00:53:19;;;;;;;21.70;3.88;;;3.50;99.90;;;;;;4994548;28;20046;-87
2021/03/22 00:55:45;;;;;;;15.70;3.55;;;3.60;99.90;;;;;;4977203;28;20054;-86
2021/03/22 00:58:13;;;;;;;26.73;3.90;;;3.60;99.90;;;;;;4977118;28;20491;-86
2021/03/22 01:00:42;;;;;;;19.88;3.35;;;3.60;99.90;;;;;;4978689;28;20097;-86
2021/03/22 01:03:12;;;;;;;20.23;3.15;;;3.50;99.90;;;;;;4969422;28;20074;-86
2021/03/22 01:05:39;;;;;;;22.08;3.40;;;3.50;99.90;;;;;;4977248;28;20061;-86
2021/03/22 01:08:06;;;;;;;16.83;3.53;;;3.40;99.90;;;;;;4976972;28;20096;-86
2021/03/22 01:11:18;;;;;;;19.13;3.22;;;3.30;99.90;;;;;;4993450;28;20141;-87
2021/03/22 01:13:55;;;;;;;13.38;2.88;;;3.30;99.90;;;;;;4987734;28;20074;-85
2021/03/22 01:16:27;;;;;;;17.25;3.75;;;3.40;99.90;;;;;;4977095;28;20169;-86
2021/03/22 01:18:56;;;;;;;20.13;4.25;;;3.40;99.90;;;;;;4977124;28;20054;-86
2021/03/22 01:21:32;;;;;;;16.70;4.03;;;3.40;99.90;;;;;;4994172;28;20125;-86
2021/03/22 01:24:00;;;;;;;17.08;3.20;;;3.40;99.90;;;;;;4976818;28;20463;-86
2021/03/22 01:26:30;;;;;;;20.00;2.90;;;3.40;99.90;;;;;;4993950;28;20137;-86
2021/03/22 01:28:57;;;;;;;26.75;3.72;;;3.40;99.90;;;;;;4995077;28;20137;-86
2021/03/22 01:31:24;;;;;;;24.23;3.67;;;3.50;99.90;;;;;;5000587;28;20054;-86
2021/03/22 01:33:52;;;;;;;26.27;3.58;;;3.50;99.90;;;;;;4983206;28;20054;-86
2021/03/22 01:36:23;;;;;;;18.58;2.85;;;3.30;99.90;;;;;;4983192;28;20141;-87
2021/03/22 01:38:50;;;;;;;20.23;3.30;;;3.40;99.90;;;;;;5000388;28;20129;-86
2021/03/22 01:41:42;;;;;;;19.65;3.72;;;3.40;99.90;;;;;;5000338;28;20050;-86
2021/03/22 01:44:43;;;;;;;17.95;3.10;;;3.50;99.90;;;;;;4983022;28;20047;-86
2021/03/22 01:47:22;;;;;;;14.95;2.67;;;3.30;99.90;;;;;;4983056;28;20050;-86
2021/03/22 01:50:26;;;;;;;21.42;4.38;;;3.40;99.90;;;;;;4983408;28;20057;-86
2021/03/22 01:52:54;;;;;;;16.50;2.78;;;3.40;99.90;;;;;;5001167;28;20384;-86
2021/03/22 01:55:23;;;;;;;19.20;3.28;;;3.30;99.90;;;;;;4983458;28;20046;-86
2021/03/22 01:57:49;;;;;;;16.98;3.08;;;3.30;99.90;;;;;;4982966;28;20138;-86
2021/03/22 02:00:26;;;;;;;20.25;3.53;;;3.40;99.90;;;;;;4983351;28;20054;-86
2021/03/22 02:03:00;;;;;;;20.95;3.00;;;3.30;99.90;;;;;;5000075;28;20042;-87
2021/03/22 02:05:29;;;;;;;19.75;3.17;;;3.30;99.90;;;;;;5000121;28;20057;-86
2021/03/22 02:08:07;;;;;;;23.73;3.10;;;3.40;99.90;;;;;;4982674;28;20137;-85
2021/03/22 02:10:34;;;;;;;15.18;3.00;;;3.20;99.90;;;;;;5000312;28;20129;-86
2021/03/22 02:13:02;;;;;;;29.08;3.53;;;3.30;99.90;;;;;;5000081;28;20137;-86
2021/03/22 02:15:28;;;;;;;20.45;3.85;;;3.30;99.90;;;;;;5000120;28;20058;-86
2021/03/22 02:18:28;;;;;;;17.70;2.80;;;3.30;99.90;;;;;;4999698;28;20054;-86
2021/03/22 02:21:36;;;;;;;13.27;2.83;;;3.40;99.90;;;;;;5000231;28;20109;-86
2021/03/22 02:24:35;;;;;;;15.55;2.72;;;3.30;99.90;;;;;;4983093;28;20120;-86
2021/03/22 02:27:32;;;;;;;17.98;2.92;;;3.40;99.90;;;;;;4914003;28;20057;-86
2021/03/22 02:30:26;;;;;;;21.05;3.92;;;3.40;99.90;;;;;;4982713;28;20145;-87
2021/03/22 02:33:31;;;;;;;17.38;2.80;;;3.40;99.90;;;;;;4999839;28;20050;-87
2021/03/22 02:35:57;;;;;;;20.77;3.25;;;3.40;99.90;;;;;;4999760;28;20090;-86
2021/03/22 02:38:27;;;;;;;14.98;2.97;;;3.40;99.90;;;;;;4982744;28;20046;-86
2021/03/22 02:41:15;;;;;;;15.35;4.38;;;3.40;99.90;;;;;;4980738;28;20101;-86
2021/03/22 02:43:42;;;;;;;19.05;3.20;;;3.40;99.90;;;;;;4979489;28;20050;-86
2021/03/22 02:46:09;;;;;;;23.73;4.10;;;3.50;99.90;;;;;;4979596;28;20149;-86
2021/03/22 02:48:38;;;;;;;20.45;3.15;;;3.40;99.90;;;;;;4996683;28;20483;-87
2021/03/22 02:51:36;;;;;;;20.55;3.00;;;3.50;99.90;;;;;;4997065;28;20514;-86
2021/03/22 02:54:36;;;;;;;20.50;3.63;;;3.40;99.90;;;;;;4955740;28;20117;-87
2021/03/22 02:57:22;;;;;;;17.77;2.70;;;3.40;99.90;;;;;;4996497;28;20054;-86
2021/03/22 02:59:58;;;;;;;16.55;2.83;;;3.40;99.90;;;;;;4979189;28;20046;-86
2021/03/22 03:02:27;;;;;;;12.65;3.03;;;3.40;99.90;;;;;;4996269;28;20054;-86
2021/03/22 03:04:54;;;;;;;14.43;3.05;;;3.30;99.90;;;;;;4979057;28;20038;-86
2021/03/22 03:07:24;;;;;;;19.60;3.03;;;3.40;99.90;;;;;;4979422;28;20088;-86
2021/03/22 03:09:51;;;;;;;15.80;2.58;;;3.40;99.90;;;;;;4979909;28;20057;-86
2021/03/22 03:12:22;;;;;;;15.93;3.08;;;3.40;99.90;;;;;;4979349;28;20486;-86
2021/03/22 03:14:52;;;;;;;16.10;2.65;;;3.30;99.90;;;;;;4996344;28;20137;-86
2021/03/22 03:17:19;;;;;;;11.23;2.55;;;3.40;99.90;;;;;;4996260;28;20137;-86
2021/03/22 03:19:49;;;;;;;16.85;2.80;;;3.40;99.90;;;;;;4979082;28;20468;-86
2021/03/22 03:22:15;;;;;;;24.85;3.22;;;3.40;99.90;;;;;;4978795;28;20475;-86
2021/03/22 03:24:41;;;;;;;19.65;3.03;;;3.40;99.90;;;;;;4995075;28;20146;-86
2021/03/22 03:27:09;;;;;;;18.98;3.35;;;3.40;99.90;;;;;;4978810;28;20129;-86
2021/03/22 03:29:36;;;;;;;16.55;3.13;;;3.30;99.90;;;;;;4995592;28;20066;-86
2021/03/22 03:32:06;;;;;;;18.58;3.13;;;3.10;99.90;;;;;;4978892;28;20046;-86
2021/03/22 03:34:33;;;;;;;22.23;3.63;;;3.20;99.90;;;;;;4996001;28;20090;-86
2021/03/22 03:36:59;;;;;;;17.17;3.38;;;3.10;99.90;;;;;;4978552;28;20133;-86
2021/03/22 03:39:25;;;;;;;19.58;3.35;;;3.20;99.90;;;;;;4978560;28;20491;-86
2021/03/22 03:41:52;;;;;;;16.88;3.97;;;3.30;99.90;;;;;;4978358;28;20050;-86
2021/03/22 03:44:18;;;;;;;19.20;3.40;;;3.20;99.90;;;;;;4978670;28;20050;-86
2021/03/22 03:46:45;;;;;;;14.80;2.58;;;3.30;99.90;;;;;;4978824;28;20085;-86
2021/03/22 03:49:12;;;;;;;19.27;3.33;;;3.30;99.90;;;;;;4995534;28;20061;-86
2021/03/22 03:51:39;;;;;;;26.45;4.50;;;3.20;99.90;;;;;;4995505;28;20054;-86
2021/03/22 03:54:07;;;;;;;25.08;3.53;;;3.20;99.90;;;;;;4978579;28;20476;-86
2021/03/22 03:56:34;;;;;;;23.00;3.30;;;3.20;99.90;;;;;;4978503;28;20093;-86
2021/03/22 03:59:01;;;;;;;19.10;3.47;;;3.20;99.90;;;;;;4978253;28;20050;-87
2021/03/22 04:01:27;;;;;;;24.15;3.03;;;3.20;99.90;;;;;;4994326;28;20046;-86
2021/03/22 04:03:54;;;;;;;22.52;2.90;;;3.10;99.90;;;;;;4978170;28;20069;-86
2021/03/22 04:06:32;;;;;;;17.17;2.88;;;3.10;99.90;;;;;;4994661;28;20140;-86
2021/03/22 04:09:10;;;;;;;22.70;3.90;;;3.10;99.90;;;;;;4978326;28;20052;-87
2021/03/22 04:11:38;;;;;;;21.20;3.35;;;3.20;99.90;;;;;;4978317;28;20069;-86
2021/03/22 04:14:06;;;;;;;12.55;2.45;;;3.20;99.90;;;;;;4977924;28;20054;-86
2021/03/22 04:16:33;;;;;;;14.80;2.90;;;3.10;99.90;;;;;;4995382;28;20093;-86
2021/03/22 04:19:00;;;;;;;22.67;3.15;;;3.10;99.90;;;;;;4977965;28;20047;-86
2021/03/22 04:21:29;;;;;;;22.25;4.18;;;3.10;99.90;;;;;;4978018;28;20547;-86
2021/03/22 04:23:57;;;;;;;21.15;3.42;;;3.10;99.90;;;;;;4978896;28;20058;-86
2021/03/22 04:26:24;;;;;;;14.32;2.97;;;3.00;99.90;;;;;;4978056;28;20132;-87
2021/03/22 04:28:51;;;;;;;14.70;2.70;;;3.10;99.90;;;;;;4977600;28;20474;-86
2021/03/22 04:31:20;;;;;;;29.30;3.60;;;3.10;99.90;;;;;;4977647;28;20050;-86
2021/03/22 04:33:47;;;;;;;20.27;2.80;;;3.10;99.90;;;;;;4977348;28;20101;-87
2021/03/22 04:36:13;;;;;;;20.13;2.80;;;3.10;99.90;;;;;;4977731;28;20089;-86
2021/03/22 04:38:40;;;;;;;17.10;2.72;;;3.10;99.90;;;;;;4994911;28;20052;-87
2021/03/22 04:41:07;;;;;;;20.23;3.53;;;3.10;99.90;;;;;;4977897;28;20085;-87
2021/03/22 04:43:34;;;;;;;18.05;3.38;;;3.10;99.90;;;;;;4994908;28;20475;-86
2021/03/22 04:46:00;;;;;;;19.35;3.13;;;3.10;99.90;;;;;;4977336;28;20085;-86
2021/03/22 04:48:27;;;;;;;24.65;3.20;;;3.10;99.90;;;;;;4977492;28;20056;-86
2021/03/22 04:50:53;;;;;;;20.50;3.22;;;3.10;99.90;;;;;;4977501;28;20046;-87
2021/03/22 04:53:20;;;;;;;21.35;3.92;;;3.00;99.90;;;;;;4977391;28;20093;-86
2021/03/22 04:55:46;;;;;;;15.30;2.58;;;3.00;99.90;;;;;;4994093;28;20495;-87
2021/03/22 04:58:13;;;;;;;24.17;3.50;;;3.00;99.90;;;;;;4994519;28;20455;-87
2021/03/22 05:00:44;;;;;;;17.63;2.72;;;3.00;99.90;;;;;;4977389;28;20046;-87
2021/03/22 05:03:16;;;;;;;21.17;3.15;;;3.00;99.90;;;;;;4977316;28;20046;-86
2021/03/22 05:05:43;;;;;;;16.30;3.60;;;2.90;99.90;;;;;;4993969;28;20104;-86
2021/03/22 05:08:15;;;;;;;14.02;2.60;;;2.90;99.90;;;;;;4994462;28;20391;-86
2021/03/22 05:10:43;;;;;;;21.20;3.28;;;2.80;99.90;;;;;;4977345;28;20046;-87
2021/03/22 05:13:12;;;;;;;22.80;3.53;;;2.80;99.90;;;;;;4977051;28;20193;-87
2021/03/22 05:15:38;;;;;;;18.83;3.58;;;2.80;99.90;;;;;;4994047;28;20582;-86
2021/03/22 05:18:06;;;;;;;23.48;4.20;;;2.80;99.90;;;;;;4993965;28;20149;-86
2021/03/22 05:20:39;;;;;;;44.67;5.75;;;2.70;99.90;;;;;;4994160;28;20054;-86
2021/03/22 05:23:09;;;;;;;26.33;3.30;;;2.70;99.90;;;;;;4976946;28;20129;-86
2021/03/22 05:25:35;;;;;;;26.33;4.15;;;2.80;99.90;;;;;;4993913;28;20108;-86
2021/03/22 05:28:04;;;;;;;16.98;3.33;;;2.70;99.90;;;;;;4976766;28;20065;-86
2021/03/22 05:30:30;;;;;;;15.68;3.03;;;2.60;99.90;;;;;;4994015;28;20054;-86
2021/03/22 05:33:02;;;;;;;18.58;2.83;;;2.50;99.90;;;;;;4994103;28;20530;-86
2021/03/22 05:35:29;;;;;;;23.65;3.88;;;2.40;99.90;;;;;;4976831;28;20054;-87
2021/03/22 05:37:57;;;;;;;23.27;3.45;;;2.40;99.90;;;;;;4994695;28;20547;-87
2021/03/22 05:40:51;;;;;;;18.17;3.25;;;2.30;99.90;;;;;;4977423;28;20081;-86
2021/03/22 05:43:36;;;;;;;;;;;2.20;99.90;;;;;;4971560;28;20137;-87
2021/03/22 05:46:05;;;;;;;27.58;4.10;;;2.20;99.90;;;;;;4992725;28;20346;-86
2021/03/22 05:48:40;;;;;;;28.05;5.65;;;2.30;99.90;;;;;;4976635;28;20046;-85
2021/03/22 05:51:12;;;;;;;16.55;3.90;;;2.30;99.90;;;;;;4976472;28;20086;-86
2021/03/22 05:54:09;;;;;;;24.93;4.07;;;2.20;99.90;;;;;;4976737;28;20088;-86
2021/03/22 05:57:11;;;;;;;21.92;3.75;;;2.30;99.90;;;;;;4977114;28;20419;-86
2021/03/22 05:59:45;;;;;;;19.05;3.35;;;2.50;99.90;;;;;;4993615;28;20057;-86
2021/03/22 06:02:38;;;;;;;22.83;4.18;;;2.70;99.90;;;;;;4976519;28;20093;-87
2021/03/22 06:05:29;;;;;;;33.17;3.65;;;2.80;99.90;;;;;;4993561;28;20061;-86
2021/03/22 06:08:12;;;;;;;27.23;3.38;;;2.90;99.90;;;;;;4976293;28;20094;-86
2021/03/22 06:10:42;;;;;;;;;;;3.00;99.90;;;;;;4994141;28;20074;-86
2021/03/22 06:13:09;;;;;;;16.13;3.22;;;3.10;99.90;;;;;;4992730;28;19972;-87
2021/03/22 06:16:24;;;;;;;16.98;3.30;;;3.20;99.90;;;;;;4976705;28;20076;-86
2021/03/22 06:19:08;;;;;;;17.83;3.67;;;3.30;99.90;;;;;;4992617;28;20134;-87
2021/03/22 06:21:38;;;;;;;13.75;2.83;;;3.50;99.90;;;;;;4980311;28;20154;-86
2021/03/22 06:24:15;;;;;;;25.00;3.95;;;3.60;99.90;;;;;;4980262;28;20507;-87
2021/03/22 06:26:47;;;;;;;26.55;4.47;;;3.70;99.90;;;;;;4979885;28;20129;-87
2021/03/22 06:29:31;;;;;;;18.25;3.30;;;3.80;99.90;;;;;;4980835;28;20117;-86
2021/03/22 06:32:02;;;;;;;;;;;3.80;99.90;;;;;;4980920;28;20096;-86
2021/03/22 06:34:35;;;;;;;15.48;2.90;;;4.10;99.90;;;;;;4997208;28;19928;-87
2021/03/22 06:37:02;;;;;;;30.63;4.03;;;4.10;99.90;;;;;;4996821;28;20141;-87
2021/03/22 06:39:28;;;;;;;34.90;5.07;;;4.40;99.90;;;;;;4980276;28;20072;-86
2021/03/22 06:41:55;;;;;;;25.80;4.07;;;4.50;99.90;;;;;;4979628;28;20133;-85
2021/03/22 06:44:33;;;;;;;20.38;4.20;;;4.50;99.90;;;;;;4980009;28;20086;-85
2021/03/22 06:47:06;;;;;;;19.88;5.10;;;4.60;99.90;;;;;;4979908;28;20054;-85
2021/03/22 06:49:42;;;;;;;21.52;3.97;;;4.70;99.90;;;;;;4979830;28;20462;-85
2021/03/22 06:52:16;;;;;;;18.55;4.53;;;4.60;99.90;;;;;;4979544;28;20137;-85
2021/03/22 06:54:54;;;;;;;24.63;6.10;;;4.70;99.90;;;;;;4980794;28;20137;-82
2021/03/22 06:57:26;;;;;;;14.00;4.45;;;4.90;99.90;;;;;;4998635;28;20137;-86
2021/03/22 07:00:07;;;;;;;22.35;3.17;;;5.00;99.90;;;;;;4996580;28;20058;-85
2021/03/22 07:03:12;;;;;;;15.80;3.95;;;5.00;99.90;;;;;;4979414;28;20380;-85
2021/03/22 07:05:39;;;;;;;15.30;2.90;;;4.70;99.90;;;;;;4996482;28;20427;-87
2021/03/22 07:08:12;;;;;;;17.92;2.85;;;5.10;99.90;;;;;;4996116;28;20081;-87
2021/03/22 07:10:54;;;;;;;17.85;3.10;;;5.30;99.90;;;;;;4979401;28;20406;-85
2021/03/22 07:13:27;;;;;;;16.10;2.58;;;5.60;99.90;;;;;;4979348;28;20054;-87
2021/03/22 07:15:56;;;;;;;22.02;2.83;;;5.90;99.90;;;;;;4979231;28;20418;-87
2021/03/22 07:18:32;;;;;;;14.07;2.45;;;6.00;99.90;;;;;;4996336;28;20050;-87
2021/03/22 07:21:09;;;;;;;14.63;2.47;;;6.20;99.90;;;;;;4979504;28;20472;-87
2021/03/22 07:23:45;;;;;;;13.13;3.60;;;7.00;99.90;;;;;;4979199;28;20487;-87
2021/03/22 07:26:23;;;;;;;14.57;3.13;;;7.30;99.90;;;;;;4978850;28;20542;-87
2021/03/22 07:29:07;;;;;;;12.45;3.88;;;7.60;99.90;;;;;;4978605;28;20085;-86
2021/03/22 07:31:52;;;;;;;14.60;3.42;;;7.60;99.90;;;;;;4978835;28;20137;-85
2021/03/22 07:34:39;;;;;;;17.35;4.50;;;7.10;99.90;;;;;;4978755;28;20109;-88
2021/03/22 07:37:26;;;;;;;38.13;11.00;;;6.50;99.90;;;;;;4995188;28;20069;-87
2021/03/22 07:40:10;;;;;;;43.78;5.43;;;6.40;99.90;;;;;;4995561;28;20097;-85
2021/03/22 07:42:56;;;;;;;46.75;15.07;;;6.40;99.90;;;;;;4978720;28;20097;-87
2021/03/22 07:45:35;;;;;;;18.15;3.85;;;6.30;99.90;;;;;;4973120;28;20454;-87
2021/03/22 07:48:36;;;;;;;23.88;4.32;;;6.40;99.90;;;;;;4978242;28;20116;-87
2021/03/22 07:51:37;;;;;;;23.35;4.88;;;6.20;99.90;;;;;;4995542;28;20054;-87
2021/03/22 07:54:12;;;;;;;46.13;15.30;;;6.00;99.90;;;;;;4995268;28;20050;-88
2021/03/22 07:56:51;;;;;;;17.13;3.50;;;5.20;99.90;;;;;;4978599;28;20133;-87
2021/03/22 07:59:42;;;;;;;65.07;23.38;;;5.00;99.90;;;;;;4978280;28;20505;-87
2021/03/22 08:02:40;;;;;;;37.05;8.55;;;5.00;99.90;;;;;;4963127;28;20046;-88
2021/03/22 08:05:15;;;;;;;42.58;12.55;;;4.80;99.90;;;;;;4978277;28;20134;-87
2021/03/22 08:07:49;;;;;;;46.15;17.35;;;4.90;99.90;;;;;;4995392;28;20144;-87
2021/03/22 08:10:27;;;;;;;133.50;53.70;;;4.60;99.90;;;;;;4995324;28;20046;-86
2021/03/22 08:13:22;;;;;;;193.57;73.95;;;4.50;99.90;;;;;;4978030;28;20050;-87
2021/03/22 08:16:12;;;;;;;28.17;9.20;;;4.50;99.90;;;;;;4977945;28;20057;-87
2021/03/22 08:18:44;;;;;;;19.17;4.35;;;4.60;99.90;;;;;;4977953;28;20450;-86
2021/03/22 08:21:24;;;;;;;28.17;9.05;;;4.80;99.90;;;;;;4978223;28;20054;-85
2021/03/22 08:24:12;;;;;;;16.15;3.97;;;5.10;99.90;;;;;;4994968;28;20065;-87
2021/03/22 08:26:44;;;;;;;30.73;4.45;;;5.00;99.90;;;;;;4994755;28;20209;-87
2021/03/22 08:29:22;;;;;;;35.35;11.32;;;5.20;99.90;;;;;;4987353;28;20101;-87
2021/03/22 08:32:00;;;;;;;22.23;4.63;;;5.10;99.90;;;;;;4977371;28;20499;-87
2021/03/22 08:34:42;;;;;;;21.63;5.13;;;5.00;99.90;;;;;;4994896;28;20062;-87
2021/03/22 08:37:20;;;;;;;40.72;13.02;;;5.00;99.90;;;;;;4977314;28;20530;-88
2021/03/22 08:40:18;;;;;;;31.02;8.30;;;5.00;99.90;;;;;;4993583;28;20050;-87
2021/03/22 08:42:50;;;;;;;29.15;7.32;;;4.90;99.90;;;;;;4974373;28;20144;-87
2021/03/22 08:45:32;;;;;;;21.65;4.45;;;4.80;99.90;;;;;;4994607;28;20128;-87
2021/03/22 08:48:17;;;;;;;21.88;6.25;;;5.00;99.90;;;;;;4994317;28;20054;-87
2021/03/22 08:50:45;;;;;;;18.67;3.45;;;5.40;99.90;;;;;;4977567;28;20558;-87
2021/03/22 08:53:16;;;;;;;18.92;3.92;;;5.80;99.90;;;;;;4994658;28;20153;-87
2021/03/22 08:55:46;;;;;;;14.90;4.05;;;6.10;99.90;;;;;;4994724;28;20046;-87
2021/03/22 08:58:31;;;;;;;20.02;5.63;;;6.00;99.90;;;;;;4977659;28;20150;-87
2021/03/22 09:01:09;;;;;;;22.83;3.72;;;6.10;99.90;;;;;;4977373;28;20587;-87
2021/03/22 09:03:38;;;;;;;36.35;4.85;;;6.10;99.90;;;;;;4977336;28;20054;-87
2021/03/22 09:06:11;;;;;;;17.08;3.65;;;6.00;99.90;;;;;;4977359;28;20058;-88
2021/03/22 09:09:03;;;;;;;13.27;3.20;;;6.00;99.90;;;;;;4977303;28;20476;-88
2021/03/22 09:11:38;;;;;;;15.90;3.60;;;6.30;99.90;;;;;;4972459;28;20068;-84
2021/03/22 09:14:29;;;;;;;13.05;3.63;;;6.50;99.90;;;;;;4977178;28;20050;-86
2021/03/22 09:16:57;;;;;;;13.43;3.05;;;7.30;99.90;;;;;;4977317;28;20054;-88
2021/03/22 09:19:44;;;;;;;12.65;3.38;;;7.90;99.90;;;;;;4994371;28;20046;-85
2021/03/22 09:22:25;;;;;;;20.70;3.30;;;8.00;99.90;;;;;;4979281;28;20089;-86
2021/03/22 09:24:51;;;;;;;19.63;3.50;;;8.70;99.90;;;;;;4993860;28;20134;-88
2021/03/22 09:27:20;;;;;;;25.88;4.20;;;9.00;99.90;;;;;;4977235;28;20256;-88
2021/03/22 09:29:49;;;;;;;14.82;3.72;;;8.90;99.90;;;;;;4976987;28;20138;-87
2021/03/22 09:32:35;;;;;;;21.58;5.10;;;8.50;99.90;;;;;;4977041;28;20054;-85
2021/03/22 09:35:16;;;;;;;11.48;3.45;;;7.80;99.90;;;;;;4993996;28;20101;-85
2021/03/22 09:37:47;;;;;;;18.27;4.65;;;7.20;99.90;;;;;;4993925;28;20525;-87
2021/03/22 09:40:17;;;;;;;32.60;13.63;;;7.00;99.90;;;;;;4977161;28;20058;-87
2021/03/22 09:42:44;;;;;;;22.55;5.30;;;6.80;99.90;;;;;;4977059;28;20483;-88
2021/03/22 09:45:21;;;;;;;15.00;3.25;;;6.50;99.90;;;;;;4993896;28;20086;-87
2021/03/22 09:48:16;;;;;;;23.92;4.75;;;6.30;99.90;;;;;;4993963;28;20137;-87
2021/03/22 09:50:52;;;;;;;18.42;4.13;;;6.00;99.90;;;;;;4978790;28;20050;-84
2021/03/22 09:53:31;;;;;;;16.60;4.55;;;5.90;99.90;;;;;;4980947;28;20125;-87
2021/03/22 09:56:03;;;;;;;24.90;4.53;;;5.80;99.90;;;;;;4980759;28;20097;-85
2021/03/22 09:58:42;;;;;;;17.63;3.65;;;6.00;99.90;;;;;;4980809;28;20046;-87
2021/03/22 10:01:30;;;;;;;16.80;3.78;;;6.20;99.90;;;;;;4980947;28;20129;-87
2021/03/22 10:04:19;;;;;;;24.80;4.13;;;5.90;99.90;;;;;;4980546;28;20057;-87
2021/03/22 10:06:56;;;;;;;15.45;3.28;;;6.10;99.90;;;;;;4980324;28;20602;-87
2021/03/22 10:09:27;;;;;;;16.58;3.22;;;6.50;99.90;;;;;;4980541;28;20144;-85
2021/03/22 10:11:56;;;;;;;26.42;4.10;;;6.60;99.90;;;;;;4997794;28;20120;-84
2021/03/22 10:14:31;;;;;;;14.23;3.00;;;6.70;99.90;;;;;;4997742;28;20097;-85
2021/03/22 10:16:59;;;;;;;14.82;3.38;;;6.70;99.90;;;;;;4980422;28;20046;-87
2021/03/22 10:19:29;;;;;;;14.43;3.03;;;6.60;99.90;;;;;;4980550;28;20054;-87
2021/03/22 10:22:12;;;;;;;34.20;4.72;;;6.50;99.90;;;;;;4997161;28;20093;-87
2021/03/22 10:24:59;;;;;;;18.27;3.88;;;6.30;99.90;;;;;;4980302;28;20097;-87
2021/03/22 10:27:32;;;;;;;25.10;3.92;;;6.30;99.90;;;;;;4980152;28;20050;-88
2021/03/22 10:30:17;;;;;;;19.45;3.67;;;6.40;99.90;;;;;;4997037;28;20057;-84
2021/03/22 10:33:02;;;;;;;18.50;3.35;;;6.30;99.90;;;;;;4996996;28;20082;-88
2021/03/22 10:35:46;;;;;;;13.02;3.40;;;6.40;99.90;;;;;;4997261;28;20054;-86
2021/03/22 10:38:23;;;;;;;18.10;3.65;;;6.40;99.90;;;;;;4988955;28;20129;-87
2021/03/22 10:40:50;;;;;;;39.95;5.07;;;6.50;99.90;;;;;;4979728;28;20058;-87
2021/03/22 10:43:25;;;;;;;15.23;3.15;;;6.60;99.90;;;;;;4981042;28;20146;-87
2021/03/22 10:45:51;;;;;;;12.80;3.33;;;6.60;99.90;;;;;;4980335;28;20078;-86
2021/03/22 10:48:44;;;;;;;14.55;3.65;;;6.60;99.90;;;;;;4979665;28;20411;-87
2021/03/22 10:51:17;;;;;;;27.20;4.57;;;6.50;99.90;;;;;;4969906;28;20050;-87
2021/03/22 10:54:05;;;;;;;16.38;3.65;;;6.40;99.90;;;;;;4995850;28;20081;-87
2021/03/22 10:56:53;;;;;;;21.27;3.63;;;6.00;99.90;;;;;;4979615;28;20078;-87
2021/03/22 10:59:23;;;;;;;16.80;3.05;;;6.00;99.90;;;;;;4979210;28;20046;-87
2021/03/22 11:01:53;;;;;;;23.58;3.42;;;6.10;99.90;;;;;;4978237;28;20141;-87
2021/03/22 11:04:33;;;;;;;21.42;4.18;;;6.00;99.90;;;;;;4996682;28;20140;-87
2021/03/22 11:07:13;;;;;;;27.80;3.50;;;6.20;99.90;;;;;;4979176;28;20485;-87
2021/03/22 11:09:50;;;;;;;16.80;3.38;;;6.30;99.90;;;;;;4979409;28;20066;-87
2021/03/22 11:12:16;;;;;;;12.75;3.38;;;6.20;99.90;;;;;;4989484;28;20058;-87
2021/03/22 11:14:43;;;;;;;18.20;4.20;;;6.10;99.90;;;;;;4979210;28;20078;-87
2021/03/22 11:17:26;;;;;;;52.22;29.85;;;6.10;99.90;;;;;;4996355;28;20179;-87
2021/03/22 11:19:53;;;;;;;10.48;3.30;;;6.00;99.90;;;;;;4978778;28;20066;-87
2021/03/22 11:22:22;;;;;;;23.30;3.78;;;6.00;99.90;;;;;;4979084;28;20555;-87
2021/03/22 11:24:50;;;;;;;16.77;3.38;;;6.10;99.90;;;;;;4978884;28;20078;-87
2021/03/22 11:27:17;;;;;;;12.52;3.47;;;6.00;99.90;;;;;;4979067;28;20105;-88
2021/03/22 11:29:53;;;;;;;16.88;2.92;;;6.40;99.90;;;;;;4979057;28;20050;-87
2021/03/22 11:32:22;;;;;;;18.50;3.13;;;7.00;99.90;;;;;;4979002;28;20474;-87
2021/03/22 11:34:49;;;;;;;19.25;3.53;;;7.70;99.90;;;;;;4995715;28;20081;-87
2021/03/22 11:37:23;;;;;;;20.73;3.40;;;8.30;99.90;;;;;;4995594;28;20096;-87
2021/03/22 11:40:16;;;;;;;34.38;5.40;;;8.80;99.90;;;;;;4995699;28;20141;-88
2021/03/22 11:43:11;;;;;;;17.50;3.88;;;9.00;99.90;;;;;;4995527;28;20050;-85
2021/03/22 11:45:41;;;;;;;185.93;98.68;;;9.50;99.90;;;;;;4995483;28;20145;-85
2021/03/22 11:48:30;;;;;;;50.25;7.15;;;9.80;99.50;;;;;;4978765;28;20050;-86
2021/03/22 11:51:08;;;;;;;8.95;2.50;;;10.00;95.40;;;;;;4978454;28;20089;-86
2021/03/22 11:54:06;;;;;;;13.32;2.97;;;10.00;92.10;;;;;;4995363;28;20410;-86
2021/03/22 11:56:38;;;;;;;10.52;2.53;;;10.50;91.60;;;;;;4995485;28;20145;-88
2021/03/22 11:59:20;;;;;;;17.55;3.03;;;11.70;82.10;;;;;;4978810;28;20051;-85
2021/03/22 12:02:05;;;;;;;14.02;3.75;;;12.30;74.60;;;;;;4978373;28;20395;-86
2021/03/22 12:04:33;;;;;;;26.02;3.90;;;13.30;67.50;;;;;;4995256;28;20085;-86
2021/03/22 12:07:03;;;;;;;27.00;3.97;;;13.60;64.60;;;;;;4977921;28;20100;-85
2021/03/22 12:09:31;;;;;;;14.73;3.28;;;15.00;61.60;;;;;;4977948;28;20554;-86
2021/03/22 12:11:59;;;;;;;12.63;3.47;;;15.70;55.90;;;;;;4977938;28;20132;-85
2021/03/22 12:14:26;;;;;;;7.90;2.83;;;13.50;58.20;;;;;;4977986;28;20388;-85
2021/03/22 12:17:01;;;;;;;12.15;3.10;;;12.50;65.70;;;;;;4977888;28;20145;-85
2021/03/22 12:19:35;;;;;;;12.27;3.08;;;12.30;66.90;;;;;;4978041;28;20104;-85
2021/03/22 12:22:02;;;;;;;8.45;2.60;;;11.90;63.60;;;;;;4977621;28;20058;-87
2021/03/22 12:24:34;;;;;;;14.97;3.07;;;11.70;65.20;;;;;;4994963;28;20060;-87
2021/03/22 12:27:01;;;;;;;16.35;3.58;;;11.20;69.30;;;;;;4994652;28;20050;-87
2021/03/22 12:29:27;;;;;;;8.57;2.72;;;10.20;70.70;;;;;;4994690;28;20136;-87
2021/03/22 12:31:53;;;;;;;13.48;4.07;;;9.80;75.20;;;;;;4977789;28;20058;-85
2021/03/22 12:34:23;;;;;;;21.08;3.20;;;9.20;78.20;;;;;;4977697;28;20070;-88
2021/03/22 12:36:51;;;;;;;8.50;2.53;;;10.40;76.90;;;;;;4994128;28;20050;-88
2021/03/22 12:39:38;;;;;;;11.82;2.75;;;10.50;73.80;;;;;;4977356;28;20081;-87
2021/03/22 12:42:14;;;;;;;13.80;2.65;;;10.40;73.20;;;;;;4994610;28;20244;-87
2021/03/22 12:44:41;;;;;;;7.13;2.33;;;10.30;73.20;;;;;;4994729;28;20117;-87
2021/03/22 12:47:15;;;;;;;23.70;4.18;;;10.80;70.10;;;;;;4969559;28;20051;-87
2021/03/22 12:49:41;;;;;;;11.15;2.88;;;11.30;68.80;;;;;;4994352;28;20050;-87
2021/03/22 12:52:07;;;;;;;12.48;3.20;;;11.30;68.10;;;;;;4976941;28;20383;-87
2021/03/22 12:54:35;;;;;;;11.88;2.42;;;11.50;65.90;;;;;;4977491;28;20129;-88
2021/03/22 12:57:01;;;;;;;8.82;2.75;;;10.80;67.10;;;;;;4994086;28;20065;-88
2021/03/22 12:59:34;;;;;;;11.52;2.55;;;10.10;73.90;;;;;;4994169;28;20073;-88
2021/03/22 13:02:02;;;;;;;14.90;3.80;;;9.70;74.70;;;;;;4976770;28;20042;-85
2021/03/22 13:04:30;;;;;;;6.85;2.88;;;9.70;75.10;;;;;;4994108;28;20513;-87
2021/03/22 13:06:57;;;;;;;10.60;3.03;;;9.70;75.00;;;;;;4993855;28;20068;-87
2021/03/22 13:09:24;;;;;;;16.08;3.35;;;9.50;77.90;;;;;;4993801;28;20050;-87
2021/03/22 13:11:50;;;;;;;14.27;3.15;;;9.40;81.00;;;;;;4976729;28;20129;-87
2021/03/22 13:14:18;;;;;;;10.15;3.20;;;9.50;82.30;;;;;;4969337;28;20042;-88
2021/03/22 13:16:45;;;;;;;13.65;3.35;;;9.20;81.60;;;;;;4965366;28;20487;-85
2021/03/22 13:19:13;;;;;;;11.15;3.05;;;9.20;83.10;;;;;;4938386;29;20062;-87
2021/03/22 13:21:41;;;;;;;12.30;3.03;;;8.90;84.20;;;;;;4938244;29;20133;-87
2021/03/22 13:24:09;;;;;;;15.63;3.58;;;9.00;84.30;;;;;;4977982;28;20058;-88